Time;durP1;ratioP1;P1;durP2;ratioP2;P2;SDS_P1;SDS_P2;PMS_P1;PMS_P2;Temp;Humidity;BMP_temperature;BMP_pressure;BME280_temperature;BME280_humidity;BME280_pressure;Samples;Min_cycle;Max_cycle;Signal;HPM_P1;HPM_P2
2023/06/21 00:00:32;;;;;;;;;;;19.40;99.90;;;;;;5072789;28;19928;-85
2023/06/21 00:02:58;;;;;;;;;;;19.30;99.90;;;;;;5072184;28;19925;-85
2023/06/21 00:05:24;;;;;;;;;;;19.30;99.90;;;;;;5071819;28;19973;-85
2023/06/21 00:07:52;;;;;;;;;;;19.30;99.90;;;;;;5073489;28;20007;-85
2023/06/21 00:10:20;;;;;;;;;;;19.30;99.90;;;;;;5071845;28;19924;-85
2023/06/21 00:12:46;;;;;;;;;;;19.30;99.90;;;;;;5072483;28;19928;-84
2023/06/21 00:15:11;;;;;;;;;;;19.30;99.90;;;;;;5073032;28;19928;-84
2023/06/21 00:17:37;;;;;;;;;;;19.30;99.90;;;;;;5076515;28;19924;-85
2023/06/21 00:20:03;;;;;;;;;;;19.20;99.90;;;;;;5076603;28;20011;-85
2023/06/21 00:22:29;;;;;;;;;;;19.10;99.90;;;;;;5076594;28;20374;-84
2023/06/21 00:24:57;;;;;;;;;;;19.10;99.90;;;;;;5076607;28;19925;-86
2023/06/21 00:27:22;;;;;;;;;;;19.10;99.90;;;;;;5075504;28;19978;-84
2023/06/21 00:29:48;;;;;;;;;;;19.10;99.90;;;;;;5076443;28;19924;-85
2023/06/21 00:32:13;;;;;;;;;;;19.00;99.90;;;;;;5076900;28;19964;-84
2023/06/21 00:34:39;;;;;;;;;;;19.00;99.90;;;;;;5076826;28;20369;-85
2023/06/21 00:37:05;;;;;;;;;;;19.00;99.90;;;;;;5076334;28;20043;-84
2023/06/21 00:39:30;;;;;;;;;;;19.00;99.90;;;;;;5076317;28;19924;-84
2023/06/21 00:41:56;;;;;;;;;;;18.90;99.90;;;;;;5074827;28;19925;-84
2023/06/21 00:44:22;;;;;;;;;;;18.90;99.90;;;;;;5058646;28;20382;-85
2023/06/21 00:46:50;;;;;;;;;;;18.90;99.90;;;;;;5076910;28;19924;-85
2023/06/21 00:49:15;;;;;;;;;;;18.90;99.90;;;;;;5076117;28;20000;-86
2023/06/21 00:51:41;;;;;;;;;;;18.80;99.90;;;;;;5075535;28;20398;-84
2023/06/21 00:54:07;;;;;;;;;;;18.80;99.90;;;;;;5076201;28;19924;-85
2023/06/21 00:56:33;;;;;;;;;;;18.80;99.90;;;;;;5074690;28;20322;-84
2023/06/21 00:58:59;;;;;;;;;;;18.80;99.90;;;;;;5075686;28;19924;-85
2023/06/21 01:01:26;;;;;;;;;;;18.70;99.90;;;;;;5058309;28;20011;-85
2023/06/21 01:03:53;;;;;;;;;;;18.70;99.90;;;;;;5075666;28;19932;-85
2023/06/21 01:06:23;;;;;;;;;;;18.70;99.90;;;;;;5075700;28;19924;-85
2023/06/21 01:08:56;;;;;;;;;;;18.70;99.90;;;;;;5075986;28;20009;-84
2023/06/21 01:11:35;;;;;;;;;;;18.70;99.90;;;;;;5075432;28;19932;-84
2023/06/21 01:14:20;;;;;;;;;;;18.60;99.90;;;;;;5075932;28;20350;-84
2023/06/21 01:16:48;;;;;;;;;;;18.70;99.90;;;;;;5074309;28;20275;-85
2023/06/21 01:19:40;;;;;;;;;;;18.70;99.90;;;;;;5075778;28;19978;-84
2023/06/21 01:22:14;;;;;;;;;;;18.70;99.90;;;;;;5051262;28;19924;-85
2023/06/21 01:24:58;;;;;;;;;;;18.70;99.90;;;;;;5075277;28;19924;-85
2023/06/21 01:27:32;;;;;;;;;;;18.70;99.90;;;;;;5074214;28;19975;-85
2023/06/21 01:29:59;;;;;;;;;;;18.70;99.90;;;;;;5074379;28;19970;-83
2023/06/21 01:32:27;;;;;;;;;;;18.70;99.90;;;;;;5073868;28;19925;-85
2023/06/21 01:34:53;;;;;;;;;;;18.70;99.90;;;;;;5074729;28;20374;-84
2023/06/21 01:37:19;;;;;;;;;;;18.70;99.90;;;;;;5075649;28;19985;-82
2023/06/21 01:39:45;;;;;;;;;;;18.70;99.90;;;;;;5075086;28;19924;-84
2023/06/21 01:42:10;;;;;;;;;;;18.70;99.90;;;;;;5073629;28;20015;-84
2023/06/21 01:44:36;;;;;;;;;;;18.70;99.90;;;;;;5074786;28;19924;-85
2023/06/21 01:47:02;;;;;;;;;;;18.80;99.90;;;;;;5074562;28;19973;-84
2023/06/21 01:49:28;;;;;;;;;;;18.80;99.90;;;;;;5074558;28;19931;-85
2023/06/21 01:51:54;;;;;;;;;;;18.80;99.90;;;;;;5074370;28;19925;-83
2023/06/21 01:54:20;;;;;;;;;;;18.70;99.90;;;;;;5074310;28;19931;-83
2023/06/21 01:56:46;;;;;;;;;;;18.70;99.90;;;;;;5074215;28;19940;-84
2023/06/21 01:59:12;;;;;;;;;;;18.70;99.90;;;;;;5073337;28;19928;-84
2023/06/21 02:01:38;;;;;;;;;;;18.70;99.90;;;;;;5075123;28;19972;-84
2023/06/21 02:04:05;;;;;;;;;;;18.70;99.90;;;;;;5073542;28;19950;-84
2023/06/21 02:06:31;;;;;;;;;;;18.80;99.90;;;;;;5073344;28;19964;-85
2023/06/21 02:09:00;;;;;;;;;;;18.80;99.90;;;;;;5073364;28;20264;-85
2023/06/21 02:11:28;;;;;;;;;;;18.80;99.90;;;;;;5073944;28;20291;-86
2023/06/21 02:13:54;;;;;;;;;;;18.70;99.90;;;;;;5074241;28;19924;-85
2023/06/21 02:16:26;;;;;;;;;;;18.70;99.90;;;;;;5074357;28;20014;-85
2023/06/21 02:18:52;;;;;;;;;;;18.70;99.90;;;;;;5074249;28;19945;-84
2023/06/21 02:21:19;;;;;;;;;;;18.60;99.90;;;;;;5074330;28;20028;-86
2023/06/21 02:23:44;;;;;;;;;;;18.60;99.90;;;;;;5073952;28;19947;-85
2023/06/21 02:26:10;;;;;;;;;;;18.60;99.90;;;;;;5074239;28;19924;-83
2023/06/21 02:28:36;;;;;;;;;;;18.60;99.90;;;;;;5073037;28;20248;-85
2023/06/21 02:31:01;;;;;;;;;;;18.60;99.90;;;;;;5074275;28;20026;-84
2023/06/21 02:33:27;;;;;;;;;;;18.60;99.90;;;;;;5073976;28;20344;-85
2023/06/21 02:35:52;;;;;;;;;;;18.70;99.90;;;;;;5073998;28;19925;-85
2023/06/21 02:38:19;;;;;;;;;;;18.70;99.90;;;;;;5073078;28;20515;-84
2023/06/21 02:40:45;;;;;;;;;;;18.70;99.90;;;;;;5072842;28;19928;-84
2023/06/21 02:43:10;;;;;;;;;;;18.60;99.90;;;;;;5071862;28;19924;-85
2023/06/21 02:45:36;;;;;;;;;;;18.50;99.90;;;;;;5073561;28;20372;-85
2023/06/21 02:48:04;;;;;;;;;;;18.50;99.90;;;;;;5073113;28;20428;-86
2023/06/21 02:50:30;;;;;;;;;;;18.50;99.90;;;;;;5073489;28;19931;-86
2023/06/21 02:52:55;;;;;;;;;;;18.40;99.90;;;;;;5073197;28;19932;-85
2023/06/21 02:55:21;;;;;;;;;;;18.40;99.90;;;;;;5074204;28;20340;-86
2023/06/21 02:57:46;;;;;;;;;;;18.40;99.90;;;;;;5073822;28;20345;-84
2023/06/21 03:00:29;;;;;;;;;;;18.30;99.90;;;;;;5072261;28;19932;-85
2023/06/21 03:02:59;;;;;;;;;;;18.30;99.90;;;;;;5072678;28;19924;-83
2023/06/21 03:05:28;;;;;;;;;;;18.20;99.90;;;;;;5073228;28;19929;-86
2023/06/21 03:07:54;;;;;;;;;;;18.20;99.90;;;;;;5073518;28;19970;-85
2023/06/21 03:10:20;;;;;;;;;;;18.10;99.90;;;;;;5073065;28;19947;-84
2023/06/21 03:12:46;;;;;;;;;;;18.20;99.90;;;;;;5073223;28;20016;-85
2023/06/21 03:15:12;;;;;;;;;;;18.10;99.90;;;;;;5072811;28;20101;-85
2023/06/21 03:17:38;;;;;;;;;;;18.10;99.90;;;;;;5073628;28;19925;-85
2023/06/21 03:20:14;;;;;;;;;;;18.10;99.90;;;;;;5072447;28;19974;-86
2023/06/21 03:22:41;;;;;;;;;;;18.10;99.90;;;;;;5073084;28;19925;-86
2023/06/21 03:25:08;;;;;;;;;;;18.10;99.90;;;;;;5073080;28;19947;-85
2023/06/21 03:27:33;;;;;;;;;;;18.10;99.90;;;;;;5072912;28;19925;-86
2023/06/21 03:29:59;;;;;;;;;;;18.00;99.90;;;;;;5055514;28;19944;-84
2023/06/21 03:32:24;;;;;;;;;;;18.00;99.90;;;;;;5072078;28;19936;-84
2023/06/21 03:34:50;;;;;;;;;;;18.00;99.90;;;;;;5072970;28;20043;-85
2023/06/21 03:37:16;;;;;;;;;;;18.10;99.90;;;;;;5073008;28;20390;-85
2023/06/21 03:39:41;;;;;;;;;;;18.00;99.90;;;;;;5073162;28;20031;-83
2023/06/21 03:42:07;;;;;;;;;;;18.00;99.90;;;;;;5073110;28;19931;-83
2023/06/21 03:44:32;;;;;;;;;;;18.00;99.90;;;;;;5071669;28;19924;-82
2023/06/21 03:46:58;;;;;;;;;;;18.00;99.90;;;;;;5072883;28;19968;-86
2023/06/21 03:49:24;;;;;;;;;;;18.10;99.90;;;;;;5071894;28;20432;-86
2023/06/21 03:51:49;;;;;;;;;;;18.10;99.90;;;;;;5074648;28;19924;-83
2023/06/21 03:54:15;;;;;;;;;;;18.10;99.90;;;;;;5075412;28;19924;-85
2023/06/21 03:56:40;;;;;;;;;;;18.10;99.90;;;;;;5076673;28;19925;-82
2023/06/21 03:59:07;;;;;;;;;;;18.10;99.90;;;;;;5076629;28;19932;-84
2023/06/21 04:01:32;;;;;;;;;;;18.10;99.90;;;;;;5076850;28;19932;-85
2023/06/21 04:03:58;;;;;;;;;;;18.00;99.90;;;;;;5059154;28;20446;-85
2023/06/21 04:06:23;;;;;;;;;;;18.00;99.90;;;;;;5076444;28;19924;-83
2023/06/21 04:08:49;;;;;;;;;;;18.10;99.90;;;;;;5076639;28;20005;-85
2023/06/21 04:11:15;;;;;;;;;;;18.10;99.90;;;;;;5077036;28;19924;-85
2023/06/21 04:13:40;;;;;;;;;;;18.10;99.90;;;;;;5075894;28;19932;-86
2023/06/21 04:16:06;;;;;;;;;;;18.10;99.90;;;;;;5076952;28;19968;-85
2023/06/21 04:18:32;;;;;;;;;;;18.10;99.90;;;;;;5076629;28;19929;-85
2023/06/21 04:20:57;;;;;;;;;;;18.20;99.90;;;;;;5058897;28;19924;-85
2023/06/21 04:23:26;;;;;;;;;;;18.10;99.90;;;;;;5076489;28;19995;-85
2023/06/21 04:25:52;;;;;;;;;;;18.10;99.90;;;;;;5076383;28;19982;-84
2023/06/21 04:28:17;;;;;;;;;;;18.10;99.90;;;;;;5076311;28;19967;-84
2023/06/21 04:30:43;;;;;;;;;;;18.10;99.90;;;;;;5076546;28;20287;-85
2023/06/21 04:33:08;;;;;;;;;;;18.20;99.90;;;;;;5076119;28;20443;-85
2023/06/21 04:35:34;;;;;;;;;;;18.20;99.90;;;;;;5076178;28;19948;-85
2023/06/21 04:38:00;;;;;;;;;;;18.20;99.90;;;;;;5076027;28;19977;-84
2023/06/21 04:40:25;;;;;;;;;;;18.30;99.90;;;;;;5075945;28;19924;-85
2023/06/21 04:42:54;;;;;;;;;;;18.30;99.90;;;;;;5074224;28;19978;-86
2023/06/21 04:45:20;;;;;;;;;;;18.40;99.90;;;;;;5074784;28;19924;-85
2023/06/21 04:47:48;;;;;;;;;;;18.40;99.90;;;;;;5058191;28;19924;-85
2023/06/21 04:50:19;;;;;;;;;;;18.40;99.90;;;;;;5074460;28;19925;-85
2023/06/21 04:52:47;;;;;;;;;;;18.40;99.90;;;;;;5075342;28;20405;-85
2023/06/21 04:55:17;;;;;;;;;;;18.40;99.90;;;;;;5074904;28;20320;-85
2023/06/21 04:57:44;;;;;;;;;;;18.50;99.90;;;;;;5075547;28;19967;-85
2023/06/21 05:00:11;;;;;;;;;;;18.50;99.90;;;;;;5074285;28;19978;-84
2023/06/21 05:02:36;;;;;;;;;;;18.60;99.90;;;;;;5074268;28;19964;-85
2023/06/21 05:05:02;;;;;;;;;;;18.60;99.90;;;;;;5074642;28;19936;-84
2023/06/21 05:07:27;;;;;;;;;;;18.70;99.90;;;;;;5075373;28;19925;-85
2023/06/21 05:09:53;;;;;;;;;;;18.80;99.90;;;;;;5074423;28;20011;-83
2023/06/21 05:12:18;;;;;;;;;;;18.80;99.90;;;;;;5076365;28;20482;-85
2023/06/21 05:14:44;;;;;;;;;;;18.80;99.90;;;;;;5074805;28;19924;-82
2023/06/21 05:17:12;;;;;;;;;;;18.80;99.90;;;;;;5075272;28;19925;-85
2023/06/21 05:19:37;;;;;;;;;;;18.80;99.90;;;;;;5075028;28;19931;-86
2023/06/21 05:22:03;;;;;;;;;;;18.90;99.90;;;;;;5074780;28;19924;-86
2023/06/21 05:24:28;;;;;;;;;;;19.00;99.90;;;;;;5074096;28;19924;-85
2023/06/21 05:26:54;;;;;;;;;;;19.00;99.90;;;;;;5075022;28;19925;-85
2023/06/21 05:29:19;;;;;;;;;;;19.10;99.90;;;;;;5075069;28;19932;-85
2023/06/21 05:31:45;;;;;;;;;;;19.20;99.90;;;;;;5074829;28;19932;-84
2023/06/21 05:34:11;;;;;;;;;;;19.30;99.90;;;;;;5073569;28;19986;-84
2023/06/21 05:36:36;;;;;;;;;;;19.40;99.90;;;;;;5074174;28;20376;-84
2023/06/21 05:39:03;;;;;;;;;;;19.40;99.90;;;;;;5074624;28;19929;-86
2023/06/21 05:41:29;;;;;;;;;;;19.50;99.90;;;;;;5074268;28;19931;-84
2023/06/21 05:43:54;;;;;;;;;;;19.50;99.90;;;;;;5074750;28;19925;-83
2023/06/21 05:46:20;;;;;;;;;;;19.60;99.90;;;;;;5074775;28;19974;-84
2023/06/21 05:48:45;;;;;;;;;;;19.70;99.90;;;;;;5075411;28;20374;-83
2023/06/21 05:51:11;;;;;;;;;;;19.80;99.90;;;;;;5075226;28;19977;-84
2023/06/21 05:53:36;;;;;;;;;;;19.80;99.90;;;;;;5073119;28;19924;-85
2023/06/21 05:56:02;;;;;;;;;;;19.80;99.90;;;;;;5073789;28;19935;-82
2023/06/21 05:58:28;;;;;;;;;;;19.80;99.90;;;;;;5074454;28;20347;-88
2023/06/21 06:00:54;;;;;;;;;;;20.00;99.90;;;;;;5074146;28;19924;-85
2023/06/21 06:03:19;;;;;;;;;;;20.10;99.90;;;;;;5075004;28;19994;-83
2023/06/21 06:05:46;;;;;;;;;;;20.20;99.90;;;;;;5073551;28;20363;-83
2023/06/21 06:08:11;;;;;;;;;;;20.30;99.90;;;;;;5056972;28;20355;-83
2023/06/21 06:10:37;;;;;;;;;;;20.40;99.90;;;;;;5075058;28;19978;-83
2023/06/21 06:13:02;;;;;;;;;;;20.60;99.90;;;;;;5072999;28;19932;-82
2023/06/21 06:15:28;;;;;;;;;;;21.00;99.90;;;;;;5074299;28;20296;-84
2023/06/21 06:17:54;;;;;;;;;;;21.40;99.90;;;;;;5057471;28;19925;-84
2023/06/21 06:20:19;;;;;;;;;;;21.60;99.90;;;;;;5074321;28;20252;-83
2023/06/21 06:22:45;;;;;;;;;;;21.80;99.90;;;;;;5073585;28;19928;-82
2023/06/21 06:25:11;;;;;;;;;;;22.00;99.90;;;;;;5074154;28;19935;-83
2023/06/21 06:27:37;;;;;;;;;;;22.40;99.90;;;;;;5073245;28;19924;-80
2023/06/21 06:30:02;;;;;;;;;;;22.70;99.90;;;;;;5074090;28;20375;-81
2023/06/21 06:32:28;;;;;;;;;;;22.80;99.90;;;;;;5074148;28;20015;-84
2023/06/21 06:34:54;;;;;;;;;;;23.00;99.90;;;;;;5074511;28;20019;-85
2023/06/21 06:37:21;;;;;;;;;;;23.30;99.90;;;;;;5073338;28;19931;-83
2023/06/21 06:39:46;;;;;;;;;;;23.60;99.90;;;;;;5074456;28;19925;-83
2023/06/21 06:42:12;;;;;;;;;;;23.60;99.90;;;;;;5074108;28;20090;-84
2023/06/21 06:44:38;;;;;;;;;;;23.80;99.90;;;;;;5073979;28;19925;-82
2023/06/21 06:47:04;;;;;;;;;;;24.00;99.90;;;;;;5073435;28;20335;-83
2023/06/21 06:49:30;;;;;;;;;;;24.30;99.90;;;;;;5073637;28;19924;-83
2023/06/21 06:51:56;;;;;;;;;;;24.50;99.90;;;;;;5073528;28;20295;-85
2023/06/21 06:54:21;;;;;;;;;;;24.40;99.90;;;;;;5072512;28;20002;-84
2023/06/21 06:56:47;;;;;;;;;;;24.20;99.90;;;;;;5073562;28;20022;-82
2023/06/21 06:59:13;;;;;;;;;;;24.40;99.90;;;;;;5073091;28;20261;-83
2023/06/21 07:01:38;;;;;;;;;;;24.50;99.90;;;;;;5073763;28;19924;-84
2023/06/21 07:04:05;;;;;;;;;;;24.50;99.90;;;;;;5072557;28;19925;-86
2023/06/21 07:06:31;;;;;;;;;;;24.80;99.90;;;;;;5056084;28;19947;-84
2023/06/21 07:08:56;;;;;;;;;;;25.30;99.90;;;;;;5072453;28;20359;-86
2023/06/21 07:11:22;;;;;;;;;;;25.60;99.90;;;;;;5073199;28;20371;-86
2023/06/21 07:13:48;;;;;;;;;;;25.70;99.90;;;;;;5072086;28;19994;-81
2023/06/21 07:16:14;;;;;;;;;;;25.80;99.90;;;;;;5073929;28;19925;-84
2023/06/21 07:18:40;;;;;;;;;;;26.00;99.90;;;;;;5073631;28;19932;-83
2023/06/21 07:21:05;;;;;;;;;;;26.20;99.90;;;;;;5073390;28;19929;-83
2023/06/21 07:23:31;;;;;;;;;;;26.10;99.90;;;;;;5074281;28;19997;-84
2023/06/21 07:25:56;;;;;;;;;;;26.00;99.90;;;;;;5074478;28;19978;-84
2023/06/21 07:28:22;;;;;;;;;;;26.10;99.90;;;;;;5077397;28;19990;-85
2023/06/21 07:30:48;;;;;;;;;;;26.30;99.90;;;;;;5076525;28;19924;-84
2023/06/21 07:33:13;;;;;;;;;;;26.30;99.90;;;;;;5078008;28;19932;-83
2023/06/21 07:35:39;;;;;;;;;;;26.10;99.90;;;;;;5077594;28;20392;-83
2023/06/21 07:38:06;;;;;;;;;;;26.10;99.90;;;;;;5077948;28;20371;-83
2023/06/21 07:40:32;;;;;;;;;;;26.20;99.90;;;;;;5077245;28;19990;-83
2023/06/21 07:42:58;;;;;;;;;;;26.00;99.90;;;;;;5077393;28;20363;-83
2023/06/21 07:45:23;;;;;;;;;;;25.60;99.90;;;;;;5076245;28;20019;-82
2023/06/21 07:47:49;;;;;;;;;;;25.60;99.90;;;;;;5077224;28;20267;-82
2023/06/21 07:50:14;;;;;;;;;;;25.70;99.90;;;;;;5077159;28;19924;-83
2023/06/21 07:52:40;;;;;;;;;;;25.80;99.90;;;;;;5077717;28;19966;-82
2023/06/21 07:55:09;;;;;;;;;;;26.20;99.90;;;;;;5076080;28;19925;-83
2023/06/21 07:57:34;;;;;;;;;;;26.30;99.90;;;;;;5076086;28;20398;-82
2023/06/21 08:00:08;;;;;;;;;;;26.70;99.90;;;;;;5076023;28;19924;-84
2023/06/21 08:02:34;;;;;;;;;;;26.80;99.90;;;;;;5076628;28;20405;-84
2023/06/21 08:04:59;;;;;;;;;;;27.00;99.90;;;;;;5077345;28;19999;-85
2023/06/21 08:07:25;;;;;;;;;;;27.10;99.90;;;;;;5077161;28;19928;-83
2023/06/21 08:09:50;;;;;;;;;;;27.30;99.90;;;;;;5076942;28;20367;-82
2023/06/21 08:12:16;;;;;;;;;;;27.40;99.90;;;;;;5076656;28;20037;-83
2023/06/21 08:14:42;;;;;;;;;;;27.50;99.90;;;;;;5076853;28;19934;-84
2023/06/21 08:17:07;;;;;;;;;;;27.50;99.90;;;;;;5075260;28;19924;-84
2023/06/21 08:19:33;;;;;;;;;;;27.50;99.90;;;;;;5076262;28;19947;-89
2023/06/21 08:21:58;;;;;;;;;;;27.40;99.90;;;;;;5058917;28;19924;-86
2023/06/21 08:24:25;;;;;;;;;;;27.40;99.90;;;;;;5041980;28;19925;-86
2023/06/21 08:26:51;;;;;;;;;;;27.20;99.90;;;;;;5075723;28;19932;-82
2023/06/21 08:29:16;;;;;;;;;;;27.00;99.90;;;;;;5076233;28;20256;-83
2023/06/21 08:31:42;;;;;;;;;;;26.80;99.90;;;;;;5077123;28;19999;-82
2023/06/21 08:34:08;;;;;;;;;;;26.60;99.90;;;;;;5058310;28;19924;-82
2023/06/21 08:36:33;;;;;;;;;;;26.40;99.90;;;;;;5076271;28;20450;-83
2023/06/21 08:38:59;;;;;;;;;;;26.40;99.90;;;;;;5075518;28;19932;-83
2023/06/21 08:41:26;;;;;;;;;;;26.50;99.90;;;;;;5074796;28;19928;-85
2023/06/21 08:43:52;;;;;;;;;;;26.70;99.90;;;;;;5075510;28;19944;-82
2023/06/21 08:46:18;;;;;;;;;;;27.00;99.90;;;;;;5075940;28;19931;-82
2023/06/21 08:48:46;;;;;;;;;;;27.10;99.90;;;;;;5075906;28;19967;-85
2023/06/21 08:51:12;;;;;;;;;;;27.00;99.90;;;;;;5076048;28;19929;-82
2023/06/21 08:53:46;;;;;;;;;;;26.90;99.90;;;;;;5075932;28;20303;-82
2023/06/21 08:56:15;;;;;;;;;;;26.80;99.90;;;;;;5075004;28;19924;-83
2023/06/21 08:58:45;;;;;;;;;;;26.60;99.90;;;;;;5074602;28;19925;-83
2023/06/21 09:01:11;;;;;;;;;;;26.50;99.90;;;;;;5076168;28;19925;-83
2023/06/21 09:03:51;;;;;;;;;;;26.70;99.90;;;;;;5075756;28;19924;-83
2023/06/21 09:06:19;;;;;;;;;;;27.00;99.90;;;;;;5075862;28;20394;-83
2023/06/21 09:08:45;;;;;;;;;;;27.30;99.90;;;;;;5075232;28;20295;-83
2023/06/21 09:11:12;;;;;;;;;;;27.30;99.90;;;;;;5075484;28;19925;-83
2023/06/21 09:13:38;;;;;;;;;;;27.30;99.90;;;;;;5075458;28;20001;-84
2023/06/21 09:16:04;;;;;;;;;;;27.20;99.90;;;;;;5075764;28;20394;-83
2023/06/21 09:18:35;;;;;;;;;;;27.10;99.90;;;;;;5074289;28;19995;-83
2023/06/21 09:21:01;;;;;;;;;;;27.10;99.90;;;;;;5075772;28;19976;-82
2023/06/21 09:23:27;;;;;;;;;;;27.30;99.90;;;;;;5076355;28;20275;-83
2023/06/21 09:25:53;;;;;;;;;;;27.30;99.90;;;;;;5075619;28;19928;-82
2023/06/21 09:28:18;;;;;;;;;;;27.40;99.90;;;;;;5075070;28;20287;-83
2023/06/21 09:30:44;;;;;;;;;;;27.20;99.90;;;;;;5075228;28;20015;-83
2023/06/21 09:33:10;;;;;;;;;;;27.20;99.90;;;;;;5075414;28;19925;-85
2023/06/21 09:35:38;;;;;;;;;;;27.40;99.90;;;;;;5075058;28;19924;-84
2023/06/21 09:38:19;;;;;;;;;;;27.70;99.90;;;;;;5074993;28;20362;-84
2023/06/21 09:40:45;;;;;;;;;;;28.10;99.90;;;;;;5075072;28;19925;-84
2023/06/21 09:43:10;;;;;;;;;;;28.40;99.90;;;;;;5075550;28;19928;-83
2023/06/21 09:45:36;;;;;;;;;;;28.60;99.90;;;;;;5074877;28;20328;-89
2023/06/21 09:48:01;;;;;;;;;;;28.80;99.90;;;;;;5056912;28;19924;-84
2023/06/21 09:50:32;;;;;;;;;;;28.90;99.00;;;;;;5074513;28;20310;-85
2023/06/21 09:52:57;;;;;;;;;;;29.20;99.60;;;;;;5075658;28;19924;-84
2023/06/21 09:55:24;;;;;;;;;;;29.40;99.20;;;;;;5074142;28;20386;-83
2023/06/21 09:57:52;;;;;;;;;;;29.40;97.20;;;;;;5074762;28;19931;-84
2023/06/21 10:00:17;;;;;;;;;;;29.10;99.60;;;;;;5074689;28;20023;-86
2023/06/21 10:02:43;;;;;;;;;;;29.10;97.00;;;;;;5074606;28;20359;-85
2023/06/21 10:05:15;;;;;;;;;;;29.20;99.80;;;;;;5074664;28;19924;-83
2023/06/21 10:07:44;;;;;;;;;;;29.30;98.00;;;;;;5075066;28;19967;-83
2023/06/21 10:10:10;;;;;;;;;;;29.40;94.50;;;;;;5074398;28;19928;-83
2023/06/21 10:12:36;;;;;;;;;;;29.40;95.70;;;;;;5075256;28;19954;-86
2023/06/21 10:15:02;;;;;;;;;;;29.50;96.60;;;;;;5056713;28;19925;-84
2023/06/21 10:17:29;;;;;;;;;;;29.70;95.90;;;;;;5074641;28;19928;-85
2023/06/21 10:19:57;;;;;;;;;;;29.70;95.10;;;;;;5074323;28;19924;-84
2023/06/21 10:22:24;;;;;;;;;;;29.70;94.90;;;;;;5075093;28;19928;-84
2023/06/21 10:24:50;;;;;;;;;;;29.80;96.10;;;;;;5074247;28;19931;-86
2023/06/21 10:27:17;;;;;;;;;;;29.50;93.00;;;;;;5074310;28;20009;-85
2023/06/21 10:29:43;;;;;;;;;;;29.60;90.10;;;;;;5072922;28;19935;-86
2023/06/21 10:32:09;;;;;;;;;;;29.60;92.60;;;;;;5074850;28;19987;-85
2023/06/21 10:34:37;;;;;;;;;;;29.70;92.20;;;;;;5074266;28;20029;-85
2023/06/21 10:37:06;;;;;;;;;;;29.70;92.50;;;;;;5074926;28;19951;-83
2023/06/21 10:39:33;;;;;;;;;;;29.50;91.20;;;;;;5073875;28;20283;-84
2023/06/21 10:41:59;;;;;;;;;;;29.00;91.00;;;;;;5073089;28;19925;-84
2023/06/21 10:44:26;;;;;;;;;;;28.60;93.50;;;;;;5074292;28;19954;-84
2023/06/21 10:46:52;;;;;;;;;;;28.30;93.60;;;;;;5072790;28;20327;-83
2023/06/21 10:49:18;;;;;;;;;;;28.10;92.90;;;;;;5073842;28;19931;-82
2023/06/21 10:51:45;;;;;;;;;;;28.00;92.80;;;;;;5074728;28;19978;-84
2023/06/21 10:54:11;;;;;;;;;;;27.90;93.40;;;;;;5073842;28;19932;-86
2023/06/21 10:56:37;;;;;;;;;;;28.00;95.20;;;;;;5074051;28;19924;-86
2023/06/21 10:59:03;;;;;;;;;;;28.20;94.90;;;;;;5073664;28;20295;-84
2023/06/21 11:01:29;;;;;;;;;;;28.40;95.60;;;;;;5072885;28;19931;-91
2023/06/21 11:03:55;;;;;;;;;;;28.70;95.10;;;;;;5055936;28;19939;-84
2023/06/21 11:06:26;;;;;;;;;;;28.90;94.50;;;;;;5073841;28;20268;-85
2023/06/21 11:08:53;;;;;;;;;;;29.20;93.90;;;;;;5073927;28;19925;-83
2023/06/21 11:11:36;;;;;;;;;;;29.30;91.40;;;;;;5073678;28;19979;-84
2023/06/21 11:14:04;;;;;;;;;;;29.50;93.10;;;;;;5073581;28;19931;-85
2023/06/21 11:16:31;;;;;;;;;;;29.70;91.90;;;;;;5072272;28;20364;-84
2023/06/21 11:19:01;;;;;;;;;;;29.70;90.80;;;;;;5073434;28;20331;-84
2023/06/21 11:21:34;;;;;;;;;;;29.70;87.40;;;;;;5074374;28;19924;-84
2023/06/21 11:24:05;;;;;;;;;;;29.70;87.20;;;;;;5073491;28;19972;-83
2023/06/21 11:26:50;;;;;;;;;;;29.20;85.90;;;;;;5073204;28;20447;-83
2023/06/21 11:29:16;;;;;;;;;;;28.90;90.10;;;;;;5073603;28;19928;-83
2023/06/21 11:31:41;;;;;;;;;;;28.90;90.90;;;;;;5073448;28;19978;-83
2023/06/21 11:34:21;;;;;;;;;;;29.00;90.40;;;;;;5072019;28;19931;-84
2023/06/21 11:36:46;;;;;;;;;;;29.20;90.00;;;;;;5073330;28;19978;-83
2023/06/21 11:39:12;;;;;;;;;;;29.50;91.60;;;;;;5073415;28;19929;-84
2023/06/21 11:41:45;;;;;;;;;;;29.70;88.90;;;;;;5073219;28;19930;-86
2023/06/21 11:44:11;;;;;;;;;;;29.70;82.40;;;;;;5073397;28;19924;-84
2023/06/21 11:46:39;;;;;;;;;;;29.80;88.50;;;;;;5072729;28;20305;-85
2023/06/21 11:49:05;;;;;;;;;;;29.80;82.70;;;;;;5073307;28;20046;-83
2023/06/21 11:51:31;;;;;;;;;;;29.80;83.30;;;;;;5073325;28;19975;-84
2023/06/21 11:53:57;;;;;;;;;;;29.80;83.20;;;;;;5073433;28;19925;-84
2023/06/21 11:56:28;;;;;;;;;;;29.90;85.20;;;;;;5073779;28;20341;-82
2023/06/21 11:58:54;;;;;;;;;;;30.00;84.90;;;;;;5073204;28;20015;-92
2023/06/21 12:01:20;;;;;;;;;;;30.10;86.40;;;;;;5055661;28;20358;-82
2023/06/21 12:03:47;;;;;;;;;;;30.20;85.80;;;;;;5073267;28;19978;-83
2023/06/21 12:06:13;;;;;;;;;;;30.20;83.40;;;;;;5071956;28;19932;-82
2023/06/21 12:08:39;;;;;;;;;;;30.10;82.00;;;;;;5072795;28;20029;-84
2023/06/21 12:11:05;;;;;;;;;;;30.20;77.70;;;;;;5072503;28;19983;-85
2023/06/21 12:13:32;;;;;;;;;;;30.20;80.00;;;;;;5077495;28;19993;-85
2023/06/21 12:15:58;;;;;;;;;;;30.00;71.20;;;;;;5075564;28;19924;-87
2023/06/21 12:18:25;;;;;;;;;;;29.80;74.70;;;;;;5077148;28;19924;-86
2023/06/21 12:20:53;;;;;;;;;;;29.80;73.30;;;;;;5076763;28;19931;-86
2023/06/21 12:23:20;;;;;;;;;;;29.70;76.70;;;;;;5077224;28;19925;-88
2023/06/21 12:25:47;;;;;;;;;;;29.80;79.00;;;;;;5076762;28;19925;-87
2023/06/21 12:28:13;;;;;;;;;;;29.70;78.40;;;;;;5076610;28;19929;-87
2023/06/21 12:30:55;;;;;;;;;;;29.50;74.70;;;;;;5076549;28;19925;-88
2023/06/21 12:33:26;;;;;;;;;;;29.30;75.50;;;;;;5076578;28;20015;-86
2023/06/21 12:35:52;;;;;;;;;;;29.30;81.10;;;;;;5076487;28;19947;-87
2023/06/21 12:38:18;;;;;;;;;;;29.40;78.20;;;;;;5076384;28;19924;-87
2023/06/21 12:40:53;;;;;;;;;;;29.50;77.80;;;;;;5075370;28;19924;-86
2023/06/21 12:43:36;;;;;;;;;;;29.70;75.20;;;;;;5076276;28;19932;-86
2023/06/21 12:46:06;;;;;;;;;;;29.90;73.60;;;;;;5075288;28;20501;-86
2023/06/21 12:48:32;;;;;;;;;;;30.00;77.10;;;;;;5076183;28;20015;-86
2023/06/21 12:50:58;;;;;;;;;;;30.00;73.00;;;;;;5075261;28;19974;-84
2023/06/21 12:53:24;;;;;;;;;;;30.10;74.80;;;;;;5075983;28;19924;-89
2023/06/21 12:55:50;;;;;;;;;;;30.10;75.10;;;;;;5075262;28;19928;-86
2023/06/21 12:58:16;;;;;;;;;;;30.10;74.20;;;;;;5075963;28;20352;-85
2023/06/21 13:00:41;;;;;;;;;;;30.10;74.40;;;;;;5076045;28;20291;-84
2023/06/21 13:03:07;;;;;;;;;;;30.00;77.00;;;;;;5075881;28;20375;-85
2023/06/21 13:05:33;;;;;;;;;;;29.80;74.40;;;;;;5075716;28;19986;-84
2023/06/21 13:07:58;;;;;;;;;;;29.40;76.10;;;;;;5075913;28;19924;-84
2023/06/21 13:10:24;;;;;;;;;;;29.10;76.10;;;;;;5075608;28;19925;-85
2023/06/21 13:12:49;;;;;;;;;;;28.90;77.80;;;;;;5076315;28;20019;-85
2023/06/21 13:15:15;;;;;;;;;;;28.80;76.50;;;;;;5076000;28;19925;-84
2023/06/21 13:17:40;;;;;;;;;;;28.70;77.10;;;;;;5075689;28;20287;-84
2023/06/21 13:20:06;;;;;;;;;;;28.60;80.10;;;;;;5076295;28;19928;-84
2023/06/21 13:22:32;;;;;;;;;;;28.40;74.80;;;;;;5074657;28;19931;-84
2023/06/21 13:24:57;;;;;;;;;;;28.20;78.90;;;;;;5074965;28;20383;-85
2023/06/21 13:27:23;;;;;;;;;;;28.10;79.70;;;;;;5075095;28;19990;-84
2023/06/21 13:29:48;;;;;;;;;;;28.00;76.20;;;;;;5074173;28;20015;-84
2023/06/21 13:32:14;;;;;;;;;;;27.90;78.00;;;;;;5075480;28;19925;-87
2023/06/21 13:34:40;;;;;;;;;;;27.80;78.10;;;;;;5076017;28;19924;-87
2023/06/21 13:37:06;;;;;;;;;;;28.00;78.90;;;;;;5074446;28;19925;-87
2023/06/21 13:39:33;;;;;;;;;;;28.20;74.70;;;;;;5075183;28;20402;-89
2023/06/21 13:41:59;;;;;;;;;;;28.20;79.30;;;;;;5074314;28;19925;-87
2023/06/21 13:44:24;;;;;;;;;;;28.30;78.10;;;;;;5073979;28;19931;-86
2023/06/21 13:46:50;;;;;;;;;;;28.50;78.40;;;;;;5074865;28;20015;-88
2023/06/21 13:49:15;;;;;;;;;;;28.60;80.30;;;;;;5074998;28;19929;-86
2023/06/21 13:51:41;;;;;;;;;;;28.80;73.00;;;;;;5075058;28;20327;-88
2023/06/21 13:54:06;;;;;;;;;;;28.90;75.60;;;;;;5074802;28;19929;-87
2023/06/21 13:56:33;;;;;;;;;;;29.00;70.30;;;;;;5074949;28;19955;-87
2023/06/21 13:58:59;;;;;;;;;;;29.00;69.20;;;;;;5074052;28;20310;-86
2023/06/21 14:01:24;;;;;;;;;;;29.00;67.00;;;;;;5074838;28;19970;-87
2023/06/21 14:03:50;;;;;;;;;;;29.10;70.00;;;;;;5074542;28;19998;-87
2023/06/21 14:06:15;;;;;;;;;;;29.10;71.40;;;;;;5073982;28;19925;-87
2023/06/21 14:08:41;;;;;;;;;;;29.10;65.60;;;;;;5073756;28;19924;-84
2023/06/21 14:11:06;;;;;;;;;;;29.00;64.00;;;;;;5075248;28;19924;-87
2023/06/21 14:13:32;;;;;;;;;;;28.90;66.30;;;;;;5075041;28;20402;-87